sensor_id;sensor_type;location;lat;lon;timestamp;P1;durP1;ratioP1;P2;durP2;ratioP2
60896;SDS011;46749;32.932;-117.130;2023-02-01T00:02:05;2.60;;;0.30;;
60896;SDS011;46749;32.932;-117.130;2023-02-01T00:04:31;0.32;;;0.30;;
60896;SDS011;46749;32.932;-117.130;2023-02-01T00:06:57;0.47;;;0.30;;
60896;SDS011;46749;32.932;-117.130;2023-02-01T00:09:24;0.40;;;0.28;;
60896;SDS011;46749;32.932;-117.130;2023-02-01T00:11:50;0.20;;;0.20;;
60896;SDS011;46749;32.932;-117.130;2023-02-01T00:14:16;0.40;;;0.20;;
60896;SDS011;46749;32.932;-117.130;2023-02-01T00:16:42;0.68;;;0.40;;
60896;SDS011;46749;32.932;-117.130;2023-02-01T00:19:13;0.35;;;0.25;;
60896;SDS011;46749;32.932;-117.130;2023-02-01T00:21:40;1.33;;;0.30;;
60896;SDS011;46749;32.932;-117.130;2023-02-01T00:24:08;0.80;;;0.40;;
60896;SDS011;46749;32.932;-117.130;2023-02-01T00:26:39;1.05;;;0.30;;
60896;SDS011;46749;32.932;-117.130;2023-02-01T00:29:11;0.40;;;0.20;;
60896;SDS011;46749;32.932;-117.130;2023-02-01T00:31:39;0.50;;;0.30;;
60896;SDS011;46749;32.932;-117.130;2023-02-01T00:34:06;0.30;;;0.20;;
60896;SDS011;46749;32.932;-117.130;2023-02-01T00:36:34;0.20;;;0.20;;
60896;SDS011;46749;32.932;-117.130;2023-02-01T00:39:00;0.40;;;0.40;;
60896;SDS011;46749;32.932;-117.130;2023-02-01T00:41:26;0.57;;;0.30;;
60896;SDS011;46749;32.932;-117.130;2023-02-01T00:43:52;0.45;;;0.32;;
60896;SDS011;46749;32.932;-117.130;2023-02-01T00:46:19;1.15;;;0.38;;
60896;SDS011;46749;32.932;-117.130;2023-02-01T00:48:46;0.75;;;0.20;;
60896;SDS011;46749;32.932;-117.130;2023-02-01T00:51:14;0.30;;;0.20;;
60896;SDS011;46749;32.932;-117.130;2023-02-01T00:53:42;0.45;;;0.30;;
60896;SDS011;46749;32.932;-117.130;2023-02-01T00:56:10;0.90;;;0.47;;
60896;SDS011;46749;32.932;-117.130;2023-02-01T00:58:37;0.45;;;0.30;;
60896;SDS011;46749;32.932;-117.130;2023-02-01T01:01:21;0.40;;;0.22;;
60896;SDS011;46749;32.932;-117.130;2023-02-01T01:03:50;0.52;;;0.30;;
60896;SDS011;46749;32.932;-117.130;2023-02-01T01:06:27;1.25;;;0.40;;
60896;SDS011;46749;32.932;-117.130;2023-02-01T01:08:55;0.45;;;0.40;;
60896;SDS011;46749;32.932;-117.130;2023-02-01T01:11:24;0.77;;;0.40;;
60896;SDS011;46749;32.932;-117.130;2023-02-01T01:13:53;0.65;;;0.30;;
60896;SDS011;46749;32.932;-117.130;2023-02-01T01:16:21;0.60;;;0.30;;
60896;SDS011;46749;32.932;-117.130;2023-02-01T01:18:48;1.38;;;0.30;;
60896;SDS011;46749;32.932;-117.130;2023-02-01T01:21:15;0.70;;;0.38;;
60896;SDS011;46749;32.932;-117.130;2023-02-01T01:23:43;0.35;;;0.28;;
60896;SDS011;46749;32.932;-117.130;2023-02-01T01:26:12;0.20;;;0.20;;
60896;SDS011;46749;32.932;-117.130;2023-02-01T01:28:41;0.52;;;0.38;;
60896;SDS011;46749;32.932;-117.130;2023-02-01T01:31:08;0.40;;;0.20;;
60896;SDS011;46749;32.932;-117.130;2023-02-01T01:33:37;0.90;;;0.40;;
60896;SDS011;46749;32.932;-117.130;2023-02-01T01:36:06;0.30;;;0.30;;
60896;SDS011;46749;32.932;-117.130;2023-02-01T01:38:36;0.65;;;0.30;;
60896;SDS011;46749;32.932;-117.130;2023-02-01T01:41:07;0.30;;;0.30;;
60896;SDS011;46749;32.932;-117.130;2023-02-01T01:43:53;2.67;;;0.77;;
60896;SDS011;46749;32.932;-117.130;2023-02-01T01:46:27;0.45;;;0.30;;
60896;SDS011;46749;32.932;-117.130;2023-02-01T01:49:04;0.57;;;0.38;;
60896;SDS011;46749;32.932;-117.130;2023-02-01T01:51:31;0.40;;;0.40;;
60896;SDS011;46749;32.932;-117.130;2023-02-01T01:54:04;1.38;;;0.30;;
60896;SDS011;46749;32.932;-117.130;2023-02-01T01:56:57;0.70;;;0.40;;
60896;SDS011;46749;32.932;-117.130;2023-02-01T01:59:32;1.15;;;0.35;;
60896;SDS011;46749;32.932;-117.130;2023-02-01T02:02:04;0.38;;;0.30;;
60896;SDS011;46749;32.932;-117.130;2023-02-01T02:04:31;0.40;;;0.30;;
60896;SDS011;46749;32.932;-117.130;2023-02-01T02:07:01;1.88;;;0.32;;
60896;SDS011;46749;32.932;-117.130;2023-02-01T02:09:35;0.75;;;0.32;;
60896;SDS011;46749;32.932;-117.130;2023-02-01T02:12:02;1.90;;;0.35;;
60896;SDS011;46749;32.932;-117.130;2023-02-01T02:14:28;0.43;;;0.32;;
60896;SDS011;46749;32.932;-117.130;2023-02-01T02:42:40;9.68;;;1.00;;
60896;SDS011;46749;32.932;-117.130;2023-02-01T02:46:12;15.73;;;1.10;;
60896;SDS011;46749;32.932;-117.130;2023-02-01T02:48:45;3.47;;;0.60;;
60896;SDS011;46749;32.932;-117.130;2023-02-01T02:54:09;5.10;;;0.73;;
60896;SDS011;46749;32.932;-117.130;2023-02-01T02:56:58;4.63;;;1.20;;
60896;SDS011;46749;32.932;-117.130;2023-02-01T02:59:45;6.18;;;1.40;;
60896;SDS011;46749;32.932;-117.130;2023-02-01T03:02:31;3.30;;;1.25;;
60896;SDS011;46749;32.932;-117.130;2023-02-01T03:05:18;4.32;;;1.00;;
60896;SDS011;46749;32.932;-117.130;2023-02-01T03:13:17;4.28;;;1.20;;
60896;SDS011;46749;32.932;-117.130;2023-02-01T03:15:51;8.40;;;1.50;;
60896;SDS011;46749;32.932;-117.130;2023-02-01T03:21:53;3.90;;;1.33;;
60896;SDS011;46749;32.932;-117.130;2023-02-01T03:24:31;2.43;;;1.40;;
60896;SDS011;46749;32.932;-117.130;2023-02-01T03:29:36;3.47;;;1.13;;
60896;SDS011;46749;32.932;-117.130;2023-02-01T03:32:10;1.73;;;1.00;;
60896;SDS011;46749;32.932;-117.130;2023-02-01T03:34:37;2.05;;;1.10;;
60896;SDS011;46749;32.932;-117.130;2023-02-01T03:37:04;1.83;;;0.90;;
60896;SDS011;46749;32.932;-117.130;2023-02-01T03:39:39;2.88;;;1.20;;
60896;SDS011;46749;32.932;-117.130;2023-02-01T03:42:24;4.68;;;1.40;;
60896;SDS011;46749;32.932;-117.130;2023-02-01T03:45:20;4.13;;;1.10;;
60896;SDS011;46749;32.932;-117.130;2023-02-01T03:47:53;2.15;;;1.20;;
60896;SDS011;46749;32.932;-117.130;2023-02-01T03:50:23;2.53;;;1.08;;
60896;SDS011;46749;32.932;-117.130;2023-02-01T03:52:53;1.98;;;1.02;;
60896;SDS011;46749;32.932;-117.130;2023-02-01T03:55:27;3.25;;;0.98;;
60896;SDS011;46749;32.932;-117.130;2023-02-01T04:00:57;3.35;;;1.25;;
60896;SDS011;46749;32.932;-117.130;2023-02-01T04:03:25;1.75;;;1.02;;
60896;SDS011;46749;32.932;-117.130;2023-02-01T04:05:52;2.53;;;0.88;;
60896;SDS011;46749;32.932;-117.130;2023-02-01T04:08:19;3.75;;;1.02;;
60896;SDS011;46749;32.932;-117.130;2023-02-01T04:10:46;2.70;;;1.20;;
60896;SDS011;46749;32.932;-117.130;2023-02-01T04:13:13;1.67;;;1.25;;
60896;SDS011;46749;32.932;-117.130;2023-02-01T04:15:39;3.00;;;1.17;;
60896;SDS011;46749;32.932;-117.130;2023-02-01T04:18:06;2.13;;;0.90;;
60896;SDS011;46749;32.932;-117.130;2023-02-01T04:20:32;1.80;;;1.00;;
60896;SDS011;46749;32.932;-117.130;2023-02-01T04:22:58;3.00;;;1.17;;
60896;SDS011;46749;32.932;-117.130;2023-02-01T04:25:27;1.67;;;1.00;;
60896;SDS011;46749;32.932;-117.130;2023-02-01T04:27:54;3.35;;;1.10;;
60896;SDS011;46749;32.932;-117.130;2023-02-01T04:30:20;2.40;;;1.20;;
60896;SDS011;46749;32.932;-117.130;2023-02-01T04:32:46;1.88;;;1.00;;
60896;SDS011;46749;32.932;-117.130;2023-02-01T04:35:12;1.10;;;0.85;;
60896;SDS011;46749;32.932;-117.130;2023-02-01T04:37:39;2.38;;;1.10;;
60896;SDS011;46749;32.932;-117.130;2023-02-01T04:40:05;1.38;;;0.77;;
60896;SDS011;46749;32.932;-117.130;2023-02-01T04:42:32;1.42;;;0.80;;
60896;SDS011;46749;32.932;-117.130;2023-02-01T04:44:58;1.40;;;0.85;;
60896;SDS011;46749;32.932;-117.130;2023-02-01T04:47:24;1.42;;;0.80;;
60896;SDS011;46749;32.932;-117.130;2023-02-01T04:49:51;1.92;;;1.00;;
60896;SDS011;46749;32.932;-117.130;2023-02-01T04:52:17;2.60;;;0.93;;
60896;SDS011;46749;32.932;-117.130;2023-02-01T04:54:43;3.03;;;1.40;;
60896;SDS011;46749;32.932;-117.130;2023-02-01T04:57:10;2.28;;;1.13;;
60896;SDS011;46749;32.932;-117.130;2023-02-01T04:59:39;1.75;;;0.90;;
60896;SDS011;46749;32.932;-117.130;2023-02-01T05:02:05;1.98;;;0.98;;
60896;SDS011;46749;32.932;-117.130;2023-02-01T05:04:31;1.02;;;0.65;;
60896;SDS011;46749;32.932;-117.130;2023-02-01T05:06:57;1.35;;;1.13;;
60896;SDS011;46749;32.932;-117.130;2023-02-01T05:09:23;1.63;;;0.95;;
60896;SDS011;46749;32.932;-117.130;2023-02-01T05:11:49;1.10;;;0.85;;
60896;SDS011;46749;32.932;-117.130;2023-02-01T05:14:34;1.40;;;1.13;;
60896;SDS011;46749;32.932;-117.130;2023-02-01T05:17:00;1.60;;;0.80;;
60896;SDS011;46749;32.932;-117.130;2023-02-01T05:19:26;1.00;;;0.80;;
60896;SDS011;46749;32.932;-117.130;2023-02-01T05:21:53;2.10;;;1.08;;
60896;SDS011;46749;32.932;-117.130;2023-02-01T05:24:19;1.52;;;1.10;;
60896;SDS011;46749;32.932;-117.130;2023-02-01T05:26:46;1.70;;;1.00;;
60896;SDS011;46749;32.932;-117.130;2023-02-01T05:29:14;0.85;;;0.80;;
60896;SDS011;46749;32.932;-117.130;2023-02-01T05:31:41;2.30;;;1.20;;
60896;SDS011;46749;32.932;-117.130;2023-02-01T05:34:09;2.15;;;1.00;;
60896;SDS011;46749;32.932;-117.130;2023-02-01T05:36:35;1.13;;;0.90;;
60896;SDS011;46749;32.932;-117.130;2023-02-01T05:39:01;1.48;;;1.02;;
60896;SDS011;46749;32.932;-117.130;2023-02-01T05:41:48;1.67;;;0.93;;
60896;SDS011;46749;32.932;-117.130;2023-02-01T05:44:14;1.73;;;0.82;;
60896;SDS011;46749;32.932;-117.130;2023-02-01T05:46:40;1.25;;;0.68;;
60896;SDS011;46749;32.932;-117.130;2023-02-01T05:49:06;1.55;;;0.85;;
60896;SDS011;46749;32.932;-117.130;2023-02-01T05:51:33;1.58;;;1.00;;
60896;SDS011;46749;32.932;-117.130;2023-02-01T05:53:59;1.45;;;0.98;;
60896;SDS011;46749;32.932;-117.130;2023-02-01T05:56:26;1.73;;;0.85;;
60896;SDS011;46749;32.932;-117.130;2023-02-01T05:58:52;1.85;;;1.00;;
60896;SDS011;46749;32.932;-117.130;2023-02-01T06:01:18;1.20;;;0.70;;
60896;SDS011;46749;32.932;-117.130;2023-02-01T06:03:44;1.20;;;0.90;;
60896;SDS011;46749;32.932;-117.130;2023-02-01T06:06:10;1.02;;;0.73;;
60896;SDS011;46749;32.932;-117.130;2023-02-01T06:08:37;1.60;;;0.82;;
60896;SDS011;46749;32.932;-117.130;2023-02-01T06:11:05;1.17;;;0.77;;
60896;SDS011;46749;32.932;-117.130;2023-02-01T06:13:32;1.15;;;0.73;;
60896;SDS011;46749;32.932;-117.130;2023-02-01T06:15:59;1.95;;;0.90;;
60896;SDS011;46749;32.932;-117.130;2023-02-01T06:18:25;0.98;;;0.80;;
60896;SDS011;46749;32.932;-117.130;2023-02-01T06:20:54;1.50;;;0.77;;
60896;SDS011;46749;32.932;-117.130;2023-02-01T06:23:22;1.60;;;1.00;;
60896;SDS011;46749;32.932;-117.130;2023-02-01T06:25:51;1.52;;;0.80;;
60896;SDS011;46749;32.932;-117.130;2023-02-01T06:28:18;2.42;;;0.82;;
60896;SDS011;46749;32.932;-117.130;2023-02-01T06:30:45;1.55;;;0.80;;
60896;SDS011;46749;32.932;-117.130;2023-02-01T06:33:12;1.23;;;0.82;;
60896;SDS011;46749;32.932;-117.130;2023-02-01T06:35:41;1.52;;;1.00;;
60896;SDS011;46749;32.932;-117.130;2023-02-01T06:38:09;2.30;;;0.93;;
60896;SDS011;46749;32.932;-117.130;2023-02-01T06:40:39;1.20;;;0.93;;
60896;SDS011;46749;32.932;-117.130;2023-02-01T06:43:07;0.70;;;0.52;;
60896;SDS011;46749;32.932;-117.130;2023-02-01T06:45:33;0.90;;;0.65;;
60896;SDS011;46749;32.932;-117.130;2023-02-01T06:48:00;2.35;;;0.90;;
60896;SDS011;46749;32.932;-117.130;2023-02-01T06:50:26;1.02;;;0.60;;
60896;SDS011;46749;32.932;-117.130;2023-02-01T06:52:52;0.73;;;0.60;;
60896;SDS011;46749;32.932;-117.130;2023-02-01T06:55:19;1.58;;;0.70;;
60896;SDS011;46749;32.932;-117.130;2023-02-01T06:57:45;2.50;;;0.80;;
60896;SDS011;46749;32.932;-117.130;2023-02-01T07:00:11;2.03;;;0.90;;
60896;SDS011;46749;32.932;-117.130;2023-02-01T07:02:38;1.88;;;0.95;;
60896;SDS011;46749;32.932;-117.130;2023-02-01T07:05:04;0.88;;;0.80;;
60896;SDS011;46749;32.932;-117.130;2023-02-01T07:07:31;1.33;;;0.90;;
60896;SDS011;46749;32.932;-117.130;2023-02-01T07:09:57;1.50;;;0.75;;
60896;SDS011;46749;32.932;-117.130;2023-02-01T07:12:23;1.63;;;0.98;;
60896;SDS011;46749;32.932;-117.130;2023-02-01T07:14:49;0.85;;;0.60;;
60896;SDS011;46749;32.932;-117.130;2023-02-01T07:17:16;0.95;;;0.68;;
60896;SDS011;46749;32.932;-117.130;2023-02-01T07:19:42;1.63;;;0.95;;
60896;SDS011;46749;32.932;-117.130;2023-02-01T07:22:08;1.55;;;0.70;;
60896;SDS011;46749;32.932;-117.130;2023-02-01T07:24:34;1.17;;;0.70;;
60896;SDS011;46749;32.932;-117.130;2023-02-01T07:27:00;1.08;;;0.82;;
60896;SDS011;46749;32.932;-117.130;2023-02-01T07:29:27;1.63;;;0.70;;
60896;SDS011;46749;32.932;-117.130;2023-02-01T07:31:53;1.15;;;0.57;;
60896;SDS011;46749;32.932;-117.130;2023-02-01T07:34:19;1.02;;;0.65;;
60896;SDS011;46749;32.932;-117.130;2023-02-01T07:36:45;1.60;;;0.70;;
60896;SDS011;46749;32.932;-117.130;2023-02-01T07:39:11;1.20;;;0.60;;
60896;SDS011;46749;32.932;-117.130;2023-02-01T07:41:37;0.90;;;0.68;;
60896;SDS011;46749;32.932;-117.130;2023-02-01T07:44:04;0.85;;;0.60;;
60896;SDS011;46749;32.932;-117.130;2023-02-01T07:46:30;1.40;;;0.80;;
60896;SDS011;46749;32.932;-117.130;2023-02-01T07:48:57;0.95;;;0.68;;
60896;SDS011;46749;32.932;-117.130;2023-02-01T07:51:23;1.35;;;0.60;;
60896;SDS011;46749;32.932;-117.130;2023-02-01T07:53:49;1.05;;;0.60;;
60896;SDS011;46749;32.932;-117.130;2023-02-01T07:56:19;0.85;;;0.60;;
60896;SDS011;46749;32.932;-117.130;2023-02-01T07:58:51;1.38;;;0.68;;
60896;SDS011;46749;32.932;-117.130;2023-02-01T08:01:20;0.90;;;0.57;;
60896;SDS011;46749;32.932;-117.130;2023-02-01T08:06:20;0.77;;;0.70;;
60896;SDS011;46749;32.932;-117.130;2023-02-01T08:08:50;0.88;;;0.55;;
60896;SDS011;46749;32.932;-117.130;2023-02-01T08:11:17;0.77;;;0.60;;
60896;SDS011;46749;32.932;-117.130;2023-02-01T08:13:45;0.82;;;0.60;;
60896;SDS011;46749;32.932;-117.130;2023-02-01T08:16:12;0.85;;;0.63;;
60896;SDS011;46749;32.932;-117.130;2023-02-01T08:18:39;0.70;;;0.50;;
60896;SDS011;46749;32.932;-117.130;2023-02-01T08:21:10;1.02;;;0.47;;
60896;SDS011;46749;32.932;-117.130;2023-02-01T08:23:42;1.23;;;0.50;;
60896;SDS011;46749;32.932;-117.130;2023-02-01T08:28:38;0.82;;;0.60;;
60896;SDS011;46749;32.932;-117.130;2023-02-01T08:31:06;0.63;;;0.50;;
60896;SDS011;46749;32.932;-117.130;2023-02-01T08:33:33;0.52;;;0.45;;
60896;SDS011;46749;32.932;-117.130;2023-02-01T08:36:01;0.73;;;0.45;;
60896;SDS011;46749;32.932;-117.130;2023-02-01T08:38:29;0.85;;;0.50;;
60896;SDS011;46749;32.932;-117.130;2023-02-01T08:40:55;1.58;;;0.70;;
60896;SDS011;46749;32.932;-117.130;2023-02-01T08:43:22;0.95;;;0.45;;
60896;SDS011;46749;32.932;-117.130;2023-02-01T08:45:49;1.23;;;0.50;;
60896;SDS011;46749;32.932;-117.130;2023-02-01T08:48:19;1.20;;;0.52;;
60896;SDS011;46749;32.932;-117.130;2023-02-01T08:50:45;0.77;;;0.50;;
60896;SDS011;46749;32.932;-117.130;2023-02-01T08:53:11;0.60;;;0.38;;
60896;SDS011;46749;32.932;-117.130;2023-02-01T08:55:39;0.70;;;0.50;;
60896;SDS011;46749;32.932;-117.130;2023-02-01T08:58:05;0.55;;;0.55;;
60896;SDS011;46749;32.932;-117.130;2023-02-01T09:00:31;1.45;;;0.57;;
60896;SDS011;46749;32.932;-117.130;2023-02-01T09:02:57;0.77;;;0.50;;
60896;SDS011;46749;32.932;-117.130;2023-02-01T09:05:24;1.77;;;0.50;;
60896;SDS011;46749;32.932;-117.130;2023-02-01T09:07:52;0.80;;;0.40;;
60896;SDS011;46749;32.932;-117.130;2023-02-01T09:10:18;0.90;;;0.40;;
60896;SDS011;46749;32.932;-117.130;2023-02-01T09:12:44;0.43;;;0.40;;
60896;SDS011;46749;32.932;-117.130;2023-02-01T09:15:11;0.80;;;0.40;;
60896;SDS011;46749;32.932;-117.130;2023-02-01T09:17:37;1.02;;;0.50;;
60896;SDS011;46749;32.932;-117.130;2023-02-01T09:20:04;1.95;;;0.57;;
60896;SDS011;46749;32.932;-117.130;2023-02-01T09:22:30;0.60;;;0.50;;
60896;SDS011;46749;32.932;-117.130;2023-02-01T09:24:56;0.40;;;0.40;;
60896;SDS011;46749;32.932;-117.130;2023-02-01T09:27:23;0.90;;;0.50;;
60896;SDS011;46749;32.932;-117.130;2023-02-01T09:29:49;1.23;;;0.50;;
60896;SDS011;46749;32.932;-117.130;2023-02-01T09:32:18;0.55;;;0.45;;
60896;SDS011;46749;32.932;-117.130;2023-02-01T09:34:46;0.90;;;0.65;;
60896;SDS011;46749;32.932;-117.130;2023-02-01T09:37:12;0.43;;;0.43;;
60896;SDS011;46749;32.932;-117.130;2023-02-01T09:39:38;0.60;;;0.40;;
60896;SDS011;46749;32.932;-117.130;2023-02-01T09:44:55;0.43;;;0.40;;
60896;SDS011;46749;32.932;-117.130;2023-02-01T09:47:32;0.50;;;0.40;;
60896;SDS011;46749;32.932;-117.130;2023-02-01T09:50:15;0.45;;;0.40;;
60896;SDS011;46749;32.932;-117.130;2023-02-01T09:52:50;1.25;;;0.52;;
60896;SDS011;46749;32.932;-117.130;2023-02-01T09:55:19;1.15;;;0.50;;
60896;SDS011;46749;32.932;-117.130;2023-02-01T10:00:24;0.50;;;0.47;;
60896;SDS011;46749;32.932;-117.130;2023-02-01T10:02:59;0.47;;;0.47;;
60896;SDS011;46749;32.932;-117.130;2023-02-01T10:08:17;0.63;;;0.50;;
60896;SDS011;46749;32.932;-117.130;2023-02-01T10:10:51;0.60;;;0.50;;
60896;SDS011;46749;32.932;-117.130;2023-02-01T10:13:34;0.85;;;0.40;;
60896;SDS011;46749;32.932;-117.130;2023-02-01T10:19:15;0.68;;;0.40;;
60896;SDS011;46749;32.932;-117.130;2023-02-01T10:21:52;0.60;;;0.30;;
60896;SDS011;46749;32.932;-117.130;2023-02-01T10:24:34;1.27;;;0.40;;
60896;SDS011;46749;32.932;-117.130;2023-02-01T10:29:39;1.40;;;0.65;;
60896;SDS011;46749;32.932;-117.130;2023-02-01T10:32:12;0.40;;;0.40;;
60896;SDS011;46749;32.932;-117.130;2023-02-01T10:34:44;0.52;;;0.43;;
60896;SDS011;46749;32.932;-117.130;2023-02-01T10:37:37;0.40;;;0.35;;
60896;SDS011;46749;32.932;-117.130;2023-02-01T10:42:43;0.60;;;0.40;;
60896;SDS011;46749;32.932;-117.130;2023-02-01T10:45:12;0.95;;;0.40;;
60896;SDS011;46749;32.932;-117.130;2023-02-01T10:47:43;0.80;;;0.60;;
60896;SDS011;46749;32.932;-117.130;2023-02-01T10:53:18;0.70;;;0.50;;
60896;SDS011;46749;32.932;-117.130;2023-02-01T10:55:49;1.55;;;0.40;;
60896;SDS011;46749;32.932;-117.130;2023-02-01T10:58:30;0.52;;;0.40;;
60896;SDS011;46749;32.932;-117.130;2023-02-01T11:01:02;0.55;;;0.47;;
60896;SDS011;46749;32.932;-117.130;2023-02-01T11:06:13;0.50;;;0.40;;
60896;SDS011;46749;32.932;-117.130;2023-02-01T11:08:52;1.35;;;0.60;;
60896;SDS011;46749;32.932;-117.130;2023-02-01T11:14:35;1.13;;;0.47;;
60896;SDS011;46749;32.932;-117.130;2023-02-01T11:17:24;0.90;;;0.55;;
60896;SDS011;46749;32.932;-117.130;2023-02-01T11:20:00;0.68;;;0.47;;
60896;SDS011;46749;32.932;-117.130;2023-02-01T11:22:30;0.77;;;0.50;;
60896;SDS011;46749;32.932;-117.130;2023-02-01T11:24:56;0.85;;;0.45;;
60896;SDS011;46749;32.932;-117.130;2023-02-01T11:27:24;0.75;;;0.40;;
60896;SDS011;46749;32.932;-117.130;2023-02-01T11:29:53;0.98;;;0.40;;
60896;SDS011;46749;32.932;-117.130;2023-02-01T11:32:25;1.35;;;0.50;;
60896;SDS011;46749;32.932;-117.130;2023-02-01T11:34:54;0.57;;;0.38;;
60896;SDS011;46749;32.932;-117.130;2023-02-01T11:37:30;0.50;;;0.45;;
60896;SDS011;46749;32.932;-117.130;2023-02-01T11:40:36;0.40;;;0.40;;
60896;SDS011;46749;32.932;-117.130;2023-02-01T11:43:01;0.80;;;0.63;;
60896;SDS011;46749;32.932;-117.130;2023-02-01T11:45:33;1.38;;;0.40;;
60896;SDS011;46749;32.932;-117.130;2023-02-01T11:48:00;0.50;;;0.40;;
60896;SDS011;46749;32.932;-117.130;2023-02-01T11:50:46;1.33;;;0.40;;
60896;SDS011;46749;32.932;-117.130;2023-02-01T11:54:23;0.60;;;0.40;;
60896;SDS011;46749;32.932;-117.130;2023-02-01T11:56:32;1.27;;;0.50;;
60896;SDS011;46749;32.932;-117.130;2023-02-01T12:02:08;0.28;;;0.28;;
60896;SDS011;46749;32.932;-117.130;2023-02-01T12:07:56;0.95;;;0.60;;
60896;SDS011;46749;32.932;-117.130;2023-02-01T12:13:33;1.02;;;0.43;;
60896;SDS011;46749;32.932;-117.130;2023-02-01T12:16:09;0.90;;;0.38;;
60896;SDS011;46749;32.932;-117.130;2023-02-01T12:24:16;0.88;;;0.50;;
60896;SDS011;46749;32.932;-117.130;2023-02-01T12:27:01;1.45;;;0.50;;
60896;SDS011;46749;32.932;-117.130;2023-02-01T12:35:03;0.30;;;0.30;;
60896;SDS011;46749;32.932;-117.130;2023-02-01T12:43:53;0.70;;;0.40;;
60896;SDS011;46749;32.932;-117.130;2023-02-01T12:51:55;1.02;;;0.40;;
60896;SDS011;46749;32.932;-117.130;2023-02-01T12:57:25;0.63;;;0.40;;
60896;SDS011;46749;32.932;-117.130;2023-02-01T13:03:26;0.43;;;0.43;;
60896;SDS011;46749;32.932;-117.130;2023-02-01T13:08:33;0.88;;;0.50;;
60896;SDS011;46749;32.932;-117.130;2023-02-01T13:11:09;0.60;;;0.38;;
60896;SDS011;46749;32.932;-117.130;2023-02-01T13:14:13;0.98;;;0.40;;
60896;SDS011;46749;32.932;-117.130;2023-02-01T13:19:42;0.80;;;0.40;;
60896;SDS011;46749;32.932;-117.130;2023-02-01T13:22:31;1.27;;;0.52;;
60896;SDS011;46749;32.932;-117.130;2023-02-01T13:27:47;0.40;;;0.38;;
60896;SDS011;46749;32.932;-117.130;2023-02-01T13:30:21;0.50;;;0.47;;
60896;SDS011;46749;32.932;-117.130;2023-02-01T13:38:14;1.45;;;0.50;;
60896;SDS011;46749;32.932;-117.130;2023-02-01T13:41:12;1.20;;;0.60;;
60896;SDS011;46749;32.932;-117.130;2023-02-01T13:44:03;0.40;;;0.32;;
60896;SDS011;46749;32.932;-117.130;2023-02-01T13:46:41;1.45;;;0.43;;
60896;SDS011;46749;32.932;-117.130;2023-02-01T13:49:21;0.40;;;0.30;;
60896;SDS011;46749;32.932;-117.130;2023-02-01T13:51:53;0.88;;;0.40;;
60896;SDS011;46749;32.932;-117.130;2023-02-01T13:54:34;0.57;;;0.40;;
60896;SDS011;46749;32.932;-117.130;2023-02-01T13:57:04;0.50;;;0.50;;
60896;SDS011;46749;32.932;-117.130;2023-02-01T13:59:51;0.50;;;0.43;;
60896;SDS011;46749;32.932;-117.130;2023-02-01T14:02:45;2.00;;;0.50;;
60896;SDS011;46749;32.932;-117.130;2023-02-01T14:13:31;0.60;;;0.50;;
60896;SDS011;46749;32.932;-117.130;2023-02-01T14:23:58;0.57;;;0.50;;
60896;SDS011;46749;32.932;-117.130;2023-02-01T14:31:51;1.13;;;0.50;;
60896;SDS011;46749;32.932;-117.130;2023-02-01T14:37:04;0.63;;;0.45;;
60896;SDS011;46749;32.932;-117.130;2023-02-01T14:39:34;1.73;;;0.65;;
60896;SDS011;46749;32.932;-117.130;2023-02-01T14:42:17;0.73;;;0.55;;
60896;SDS011;46749;32.932;-117.130;2023-02-01T14:44:50;0.82;;;0.55;;
60896;SDS011;46749;32.932;-117.130;2023-02-01T14:49:56;0.82;;;0.60;;
60896;SDS011;46749;32.932;-117.130;2023-02-01T14:52:30;0.75;;;0.52;;
60896;SDS011;46749;32.932;-117.130;2023-02-01T14:55:14;1.23;;;0.63;;
60896;SDS011;46749;32.932;-117.130;2023-02-01T14:57:42;0.60;;;0.50;;
60896;SDS011;46749;32.932;-117.130;2023-02-01T15:00:18;0.50;;;0.50;;
60896;SDS011;46749;32.932;-117.130;2023-02-01T15:02:44;0.70;;;0.40;;
60896;SDS011;46749;32.932;-117.130;2023-02-01T15:05:35;2.22;;;0.55;;
60896;SDS011;46749;32.932;-117.130;2023-02-01T15:08:05;1.00;;;0.50;;
60896;SDS011;46749;32.932;-117.130;2023-02-01T15:10:46;1.90;;;0.50;;
60896;SDS011;46749;32.932;-117.130;2023-02-01T15:13:23;1.42;;;0.60;;
60896;SDS011;46749;32.932;-117.130;2023-02-01T15:16:00;0.88;;;0.50;;
60896;SDS011;46749;32.932;-117.130;2023-02-01T15:18:37;0.50;;;0.50;;
60896;SDS011;46749;32.932;-117.130;2023-02-01T15:21:04;1.00;;;0.50;;
60896;SDS011;46749;32.932;-117.130;2023-02-01T15:23:32;0.95;;;0.60;;
60896;SDS011;46749;32.932;-117.130;2023-02-01T15:25:58;1.63;;;0.68;;
60896;SDS011;46749;32.932;-117.130;2023-02-01T15:28:25;0.80;;;0.50;;
60896;SDS011;46749;32.932;-117.130;2023-02-01T15:31:11;0.68;;;0.50;;
60896;SDS011;46749;32.932;-117.130;2023-02-01T15:33:37;1.70;;;0.75;;
60896;SDS011;46749;32.932;-117.130;2023-02-01T15:38:35;1.80;;;0.77;;
60896;SDS011;46749;32.932;-117.130;2023-02-01T15:41:15;0.50;;;0.50;;
60896;SDS011;46749;32.932;-117.130;2023-02-01T15:46:46;3.35;;;2.10;;
60896;SDS011;46749;32.932;-117.130;2023-02-01T15:49:17;1.73;;;1.23;;
60896;SDS011;46749;32.932;-117.130;2023-02-01T15:51:48;3.80;;;2.33;;
60896;SDS011;46749;32.932;-117.130;2023-02-01T15:54:16;3.90;;;2.55;;
60896;SDS011;46749;32.932;-117.130;2023-02-01T15:56:49;4.10;;;3.17;;
60896;SDS011;46749;32.932;-117.130;2023-02-01T15:59:21;5.50;;;4.40;;
60896;SDS011;46749;32.932;-117.130;2023-02-01T16:01:53;5.43;;;3.88;;
60896;SDS011;46749;32.932;-117.130;2023-02-01T16:04:21;5.20;;;3.60;;
60896;SDS011;46749;32.932;-117.130;2023-02-01T16:09:22;5.32;;;4.43;;
60896;SDS011;46749;32.932;-117.130;2023-02-01T16:11:57;7.68;;;4.88;;
60896;SDS011;46749;32.932;-117.130;2023-02-01T16:14:25;9.63;;;5.75;;
60896;SDS011;46749;32.932;-117.130;2023-02-01T16:16:52;5.82;;;4.50;;
60896;SDS011;46749;32.932;-117.130;2023-02-01T16:19:20;6.85;;;4.82;;
60896;SDS011;46749;32.932;-117.130;2023-02-01T16:21:49;5.53;;;4.85;;
60896;SDS011;46749;32.932;-117.130;2023-02-01T16:24:15;6.82;;;4.40;;
60896;SDS011;46749;32.932;-117.130;2023-02-01T16:26:41;5.70;;;4.80;;
60896;SDS011;46749;32.932;-117.130;2023-02-01T16:29:08;7.70;;;6.07;;
60896;SDS011;46749;32.932;-117.130;2023-02-01T16:31:37;7.20;;;4.20;;
60896;SDS011;46749;32.932;-117.130;2023-02-01T16:34:05;7.60;;;4.95;;
60896;SDS011;46749;32.932;-117.130;2023-02-01T16:36:32;5.95;;;4.10;;
60896;SDS011;46749;32.932;-117.130;2023-02-01T16:38:59;5.75;;;4.35;;
60896;SDS011;46749;32.932;-117.130;2023-02-01T16:41:25;5.40;;;4.32;;
60896;SDS011;46749;32.932;-117.130;2023-02-01T16:43:53;4.82;;;3.85;;
60896;SDS011;46749;32.932;-117.130;2023-02-01T16:46:21;5.20;;;3.95;;
60896;SDS011;46749;32.932;-117.130;2023-02-01T16:48:59;6.75;;;4.20;;
60896;SDS011;46749;32.932;-117.130;2023-02-01T16:51:28;5.32;;;3.80;;
60896;SDS011;46749;32.932;-117.130;2023-02-01T16:53:58;3.75;;;3.15;;
60896;SDS011;46749;32.932;-117.130;2023-02-01T16:56:33;4.03;;;2.92;;
60896;SDS011;46749;32.932;-117.130;2023-02-01T16:59:01;5.15;;;3.63;;
60896;SDS011;46749;32.932;-117.130;2023-02-01T17:01:27;5.35;;;3.40;;
60896;SDS011;46749;32.932;-117.130;2023-02-01T17:03:53;4.80;;;2.90;;
60896;SDS011;46749;32.932;-117.130;2023-02-01T17:06:21;5.03;;;3.35;;
60896;SDS011;46749;32.932;-117.130;2023-02-01T17:08:50;3.80;;;3.13;;
60896;SDS011;46749;32.932;-117.130;2023-02-01T17:11:19;3.85;;;2.60;;